Cincinnati, Ohio
Current Conditions -  °F | °C
As of 4:53 AM on Sunday 26 Oct 2014 (Local Time) from KLUK Reporting Station
Clear Clear  
Wind Chill: 47°   Ceiling: Unl
Heat Index: 47°   Visibility: 10mi
Dew Point: 40°   Wind: 0mph
Humidity: 77%   Direction: NA
Pressure: 29.98"   Gusts: NA
Location:  39.11°N, 84.5°W
Report Text: KLUK 260853Z AUTO 00000KT 10SM CLR 08/04 A2998 RMK AO2 SLP150 T00830044 53010
Loading
Personal Weather Stations






























Interactive Weather Map
Tropical Storm Tracking
New forecast layout! Learn more

10-Day Weather Forecast

Advertisements
Track Severe Weather on mobile